createdAt,value
2022-10-31T00:01:33.374Z,63.46
2022-10-31T00:04:00.798Z,63.18
2022-10-31T00:06:28.761Z,63.66
2022-10-31T00:09:00.871Z,63.51
2022-10-31T00:11:28.878Z,63.89
2022-10-31T00:13:56.187Z,63.92
2022-10-31T00:16:26.815Z,64.06
2022-10-31T00:18:58.682Z,64.12
2022-10-31T00:21:27.026Z,64.30
2022-10-31T00:23:54.315Z,64.09
2022-10-31T00:26:21.995Z,63.85
2022-10-31T00:28:49.545Z,63.85
2022-10-31T00:31:16.701Z,63.76
2022-10-31T00:33:44.905Z,63.31
2022-10-31T00:36:19.168Z,63.52
2022-10-31T00:38:47.315Z,63.62
2022-10-31T00:41:17.235Z,63.80
2022-10-31T00:43:45.010Z,63.89
2022-10-31T00:46:13.994Z,63.27
2022-10-31T00:48:43.290Z,63.29
2022-10-31T00:51:11.469Z,63.50
2022-10-31T00:53:40.070Z,63.65
2022-10-31T00:56:08.337Z,63.57
2022-10-31T00:58:35.556Z,63.28
2022-10-31T01:01:02.803Z,63.82
2022-10-31T01:03:33.771Z,63.89
2022-10-31T01:06:05.839Z,63.43
2022-10-31T01:08:37.298Z,63.63
2022-10-31T01:11:14.792Z,63.87
2022-10-31T01:13:42.456Z,64.20
2022-10-31T01:16:14.573Z,64.30
2022-10-31T01:18:42.026Z,64.08
2022-10-31T01:21:15.985Z,64.36
2022-10-31T01:23:43.202Z,64.50
2022-10-31T01:26:17.268Z,64.57
2022-10-31T01:28:55.718Z,64.73
2022-10-31T01:31:27.568Z,64.70
2022-10-31T01:33:55.660Z,64.84
2022-10-31T01:36:30.081Z,64.57
2022-10-31T01:39:01.361Z,64.74
2022-10-31T01:41:31.952Z,64.57
2022-10-31T01:44:23.127Z,64.62
2022-10-31T01:46:58.253Z,64.64
2022-10-31T01:49:37.073Z,64.73
2022-10-31T01:52:25.826Z,64.48
2022-10-31T01:55:33.741Z,63.92
2022-10-31T01:58:16.013Z,63.77
2022-10-31T02:00:50.595Z,63.50
2022-10-31T02:03:19.961Z,63.59
2022-10-31T02:05:47.626Z,63.54
2022-10-31T02:08:30.913Z,63.71
2022-10-31T02:10:59.860Z,63.82
2022-10-31T02:13:28.863Z,64.03
2022-10-31T02:15:59.574Z,63.94
2022-10-31T02:18:30.662Z,63.92
2022-10-31T02:21:13.112Z,63.94
2022-10-31T02:24:16.403Z,63.89
2022-10-31T02:27:44.273Z,64.36
2022-10-31T02:30:21.684Z,64.59
2022-10-31T02:33:00.554Z,64.48
2022-10-31T02:35:55.594Z,63.94
2022-10-31T02:38:32.393Z,63.58
2022-10-31T02:41:04.428Z,63.63
2022-10-31T02:43:45.106Z,63.68
2022-10-31T02:46:29.606Z,63.65
2022-10-31T02:49:02.313Z,63.95
2022-10-31T02:51:29.916Z,64.16
2022-10-31T02:53:56.929Z,63.94
2022-10-31T02:56:24.047Z,63.91
2022-10-31T02:59:01.611Z,63.77
2022-10-31T03:01:35.328Z,63.65
2022-10-31T03:04:42.498Z,63.89
2022-10-31T03:07:29.355Z,64.10
2022-10-31T03:10:10.005Z,64.50
2022-10-31T03:13:21.351Z,64.59
2022-10-31T03:16:07.376Z,64.46
2022-10-31T03:18:41.101Z,64.39
2022-10-31T03:21:21.621Z,64.46
2022-10-31T03:23:50.913Z,64.10
2022-10-31T03:26:22.377Z,64.01
2022-10-31T03:29:04.479Z,64.01
2022-10-31T03:31:44.375Z,64.10
2022-10-31T03:34:14.595Z,64.52
2022-10-31T03:36:43.692Z,64.98
2022-10-31T03:39:15.403Z,64.99
2022-10-31T03:41:50.900Z,64.92
2022-10-31T03:44:20.796Z,64.63
2022-10-31T03:46:56.256Z,63.82
2022-10-31T03:49:23.772Z,64.22
2022-10-31T03:52:28.726Z,64.05
2022-10-31T03:55:19.861Z,64.02
2022-10-31T03:58:06.723Z,63.55
2022-10-31T04:00:35.074Z,63.70
2022-10-31T04:03:16.688Z,64.15
2022-10-31T04:05:50.417Z,64.17
2022-10-31T04:08:21.677Z,64.26
2022-10-31T04:10:51.164Z,63.50
2022-10-31T04:13:30.403Z,63.54
2022-10-31T04:16:06.394Z,63.79
2022-10-31T04:18:34.130Z,63.93
2022-10-31T04:21:08.075Z,64.09
2022-10-31T04:23:37.255Z,64.23
2022-10-31T04:26:25.630Z,64.68
2022-10-31T04:28:52.802Z,64.72
2022-10-31T04:31:20.309Z,64.69
2022-10-31T04:33:49.539Z,64.57
2022-10-31T04:36:16.810Z,65.08
2022-10-31T04:38:43.889Z,64.75
2022-10-31T04:41:24.204Z,64.45
2022-10-31T04:43:59.204Z,64.54
2022-10-31T04:46:28.095Z,64.16
2022-10-31T04:48:57.484Z,64.13
2022-10-31T04:51:25.015Z,64.01
2022-10-31T04:53:52.622Z,64.04
2022-10-31T04:56:28.415Z,64.27
2022-10-31T04:59:06.078Z,64.48
2022-10-31T05:01:46.737Z,64.45
2022-10-31T05:04:14.006Z,64.34
2022-10-31T05:06:42.085Z,64.41
2022-10-31T05:09:09.442Z,64.50
2022-10-31T05:11:36.481Z,63.85
2022-10-31T05:14:19.178Z,64.12
2022-10-31T05:17:04.793Z,64.40
2022-10-31T05:19:54.622Z,64.63
2022-10-31T05:23:06.591Z,64.68
2022-10-31T05:25:33.751Z,64.52
2022-10-31T05:28:04.549Z,64.71
2022-10-31T05:30:33.096Z,64.63
2022-10-31T05:33:01.919Z,64.63
2022-10-31T05:35:47.759Z,65.01
2022-10-31T05:38:29.650Z,64.81
2022-10-31T05:41:02.889Z,64.28
2022-10-31T05:43:32.320Z,63.99
2022-10-31T05:46:00.791Z,63.90
2022-10-31T05:48:47.857Z,63.83
2022-10-31T05:51:29.770Z,63.94
2022-10-31T05:53:56.903Z,63.72
2022-10-31T05:56:24.894Z,63.67
2022-10-31T05:58:52.154Z,63.31
2022-10-31T06:01:19.240Z,63.80
2022-10-31T06:03:47.127Z,63.76
2022-10-31T06:06:16.684Z,63.48
2022-10-31T06:08:43.927Z,63.38
2022-10-31T06:11:15.666Z,63.71
2022-10-31T06:13:54.563Z,63.66
2022-10-31T06:16:31.158Z,63.63
2022-10-31T06:19:04.082Z,63.59
2022-10-31T06:21:31.789Z,63.14
2022-10-31T06:23:59.145Z,63.07
2022-10-31T06:26:55.170Z,62.93
2022-10-31T06:29:22.612Z,62.92
2022-10-31T06:32:05.679Z,62.54
2022-10-31T06:34:38.759Z,62.44
2022-10-31T06:37:08.486Z,62.73
2022-10-31T06:39:36.072Z,62.53
2022-10-31T06:42:03.757Z,62.70
2022-10-31T06:44:31.915Z,62.62
2022-10-31T06:47:17.469Z,62.13
2022-10-31T06:49:56.878Z,61.95
2022-10-31T06:52:25.789Z,61.75
2022-10-31T06:54:53.729Z,61.57
2022-10-31T06:57:22.120Z,61.82
2022-10-31T06:59:49.892Z,61.22
2022-10-31T07:02:39.789Z,61.33
2022-10-31T07:05:07.349Z,61.21
2022-10-31T07:07:34.380Z,60.65
2022-10-31T07:10:01.628Z,60.59
2022-10-31T07:12:43.455Z,60.99
2022-10-31T07:15:11.885Z,60.59
2022-10-31T07:17:39.065Z,60.53
2022-10-31T07:20:09.652Z,60.05
2022-10-31T07:22:38.606Z,59.22
2022-10-31T07:25:09.417Z,59.43
2022-10-31T07:27:42.789Z,59.54
2022-10-31T07:30:14.093Z,59.15
2022-10-31T07:32:50.056Z,58.91
2022-10-31T07:35:27.567Z,58.45
2022-10-31T07:37:59.311Z,58.18
2022-10-31T07:40:26.929Z,57.81
2022-10-31T07:42:54.903Z,57.51
2022-10-31T07:45:40.729Z,57.23
2022-10-31T07:48:28.015Z,56.81
2022-10-31T07:51:13.526Z,56.20
2022-10-31T07:53:52.874Z,55.78
2022-10-31T07:56:24.910Z,55.38
2022-10-31T07:58:52.757Z,55.24
2022-10-31T08:01:19.813Z,54.40
2022-10-31T08:04:02.639Z,53.40
2022-10-31T08:07:01.432Z,53.51
2022-10-31T08:09:34.634Z,53.36
2022-10-31T08:12:06.706Z,53.22
2022-10-31T08:14:35.781Z,53.28
2022-10-31T08:17:02.875Z,53.28
2022-10-31T08:19:40.134Z,53.27
2022-10-31T08:22:10.294Z,52.98
2022-10-31T08:27:09.469Z,52.32
2022-10-31T08:29:38.502Z,52.09
2022-10-31T08:32:05.944Z,51.76
2022-10-31T08:34:51.775Z,51.39
2022-10-31T08:37:39.035Z,51.29
2022-10-31T08:40:07.763Z,50.88
2022-10-31T08:42:35.982Z,50.73
2022-10-31T08:45:04.273Z,50.42
2022-10-31T08:47:33.327Z,50.08
2022-10-31T08:50:01.110Z,49.98
2022-10-31T08:52:58.719Z,49.73
2022-10-31T08:55:16.689Z,49.34
2022-10-31T08:58:06.935Z,49.70
2022-10-31T09:00:43.753Z,49.79
2022-10-31T09:03:21.770Z,49.25
2022-10-31T09:05:49.663Z,49.16
2022-10-31T09:08:17.578Z,49.08
2022-10-31T09:10:47.413Z,48.88
2022-10-31T09:13:21.268Z,48.44
2022-10-31T09:16:07.380Z,48.42
2022-10-31T09:18:35.747Z,47.83
2022-10-31T09:21:03.081Z,47.53
2022-10-31T09:23:33.097Z,47.95
2022-10-31T09:26:02.789Z,47.76
2022-10-31T09:28:42.770Z,47.75
2022-10-31T09:31:13.010Z,47.69
2022-10-31T09:34:09.338Z,47.62
2022-10-31T09:36:40.074Z,47.44
2022-10-31T09:39:21.138Z,47.37
2022-10-31T09:42:03.020Z,47.08
2022-10-31T09:45:26.576Z,46.93
2022-10-31T09:48:24.496Z,46.78
2022-10-31T09:51:24.582Z,46.76
2022-10-31T09:54:33.755Z,46.74
2022-10-31T09:57:01.880Z,46.51
2022-10-31T09:59:37.179Z,46.66
2022-10-31T10:02:31.835Z,46.05
2022-10-31T10:05:04.995Z,46.07
2022-10-31T10:08:13.541Z,45.92
2022-10-31T10:11:32.569Z,46.34
2022-10-31T10:14:23.233Z,45.70
2022-10-31T10:16:59.046Z,45.63
2022-10-31T10:20:03.137Z,45.58
2022-10-31T10:22:39.042Z,45.07
2022-10-31T10:25:12.081Z,44.96
2022-10-31T10:28:39.266Z,45.27
2022-10-31T10:31:14.638Z,44.94
2022-10-31T10:34:00.753Z,44.91
2022-10-31T10:37:04.563Z,44.82
2022-10-31T10:39:39.884Z,44.27
2022-10-31T10:42:34.906Z,44.56
2022-10-31T10:45:37.045Z,44.11
2022-10-31T10:48:17.044Z,43.43
2022-10-31T10:50:52.551Z,43.62
2022-10-31T10:54:39.255Z,42.65
2022-10-31T10:57:37.541Z,40.77
2022-10-31T11:00:31.322Z,38.65
2022-10-31T11:02:58.730Z,36.33
2022-10-31T11:05:41.802Z,34.94
2022-10-31T11:08:09.318Z,33.35
2022-10-31T11:10:36.986Z,32.10
2022-10-31T11:13:22.989Z,31.20
2022-10-31T11:16:05.741Z,29.95
2022-10-31T11:18:43.257Z,29.64
2022-10-31T11:21:25.657Z,28.50
2022-10-31T11:24:24.317Z,27.56
2022-10-31T11:26:52.544Z,26.82
2022-10-31T11:29:26.053Z,25.90
2022-10-31T11:31:57.003Z,25.50
2022-10-31T11:34:51.360Z,24.82
2022-10-31T11:37:36.200Z,24.65
2022-10-31T11:40:07.434Z,24.23
2022-10-31T11:42:42.567Z,24.00
2022-10-31T11:45:37.727Z,23.64
2022-10-31T11:48:21.936Z,23.85
2022-10-31T11:50:53.884Z,23.53
2022-10-31T11:53:30.205Z,23.20
2022-10-31T11:56:17.672Z,23.02
2022-10-31T11:58:44.888Z,23.20
2022-10-31T12:01:28.745Z,23.13
2022-10-31T12:04:08.067Z,23.31
2022-10-31T12:06:44.290Z,23.31
2022-10-31T12:09:27.131Z,22.90
2022-10-31T12:12:12.734Z,22.77
2022-10-31T12:15:07.187Z,22.50
2022-10-31T12:18:04.750Z,22.85
2022-10-31T12:20:52.703Z,23.17
2022-10-31T12:24:01.485Z,22.33
2022-10-31T12:26:37.649Z,22.24
2022-10-31T12:29:34.884Z,21.72
2022-10-31T12:32:30.305Z,21.93
2022-10-31T12:35:24.249Z,21.93
2022-10-31T12:38:09.451Z,21.66
2022-10-31T12:41:01.817Z,21.44
2022-10-31T12:43:44.752Z,21.33
2022-10-31T12:47:04.464Z,21.77
2022-10-31T12:49:55.229Z,21.25
2022-10-31T12:53:00.281Z,21.34
2022-10-31T12:55:39.672Z,21.26
2022-10-31T12:58:38.181Z,21.15
2022-10-31T13:01:13.646Z,21.88
2022-10-31T13:04:17.170Z,22.10
2022-10-31T13:06:54.010Z,21.61
2022-10-31T13:09:31.836Z,21.74
2022-10-31T13:12:08.412Z,21.88
2022-10-31T13:14:44.371Z,21.75
2022-10-31T13:17:27.443Z,21.58
2022-10-31T13:20:05.191Z,21.37
2022-10-31T13:22:36.757Z,21.45
2022-10-31T13:25:09.868Z,21.49
2022-10-31T13:28:01.841Z,21.24
2022-10-31T13:30:33.797Z,21.43
2022-10-31T13:33:35.370Z,21.72
2022-10-31T13:36:18.171Z,21.40
2022-10-31T13:39:11.583Z,21.57
2022-10-31T13:42:25.100Z,21.41
2022-10-31T13:44:52.160Z,21.56
2022-10-31T13:47:28.341Z,21.50
2022-10-31T13:50:20.916Z,21.71
2022-10-31T13:52:48.456Z,21.88
2022-10-31T13:55:45.097Z,22.53
2022-10-31T13:58:38.692Z,22.86
2022-10-31T14:01:17.020Z,22.77
2022-10-31T14:04:12.410Z,22.35
2022-10-31T14:06:39.600Z,22.31
2022-10-31T14:09:07.384Z,22.33
2022-10-31T14:11:37.152Z,22.26
2022-10-31T14:14:12.372Z,22.48
2022-10-31T14:16:44.261Z,23.02
2022-10-31T14:19:22.139Z,23.83
2022-10-31T14:21:51.208Z,23.67
2022-10-31T14:24:24.393Z,24.62
2022-10-31T14:27:16.148Z,25.46
2022-10-31T14:29:46.617Z,27.06
2022-10-31T14:32:27.670Z,28.68
2022-10-31T14:34:58.440Z,30.15
2022-10-31T14:38:08.597Z,31.35
2022-10-31T14:41:25.318Z,32.85
2022-10-31T14:44:40.135Z,33.95
2022-10-31T14:47:16.113Z,34.78
2022-10-31T14:50:26.997Z,35.88
2022-10-31T14:52:58.784Z,36.27
2022-10-31T14:55:27.395Z,36.81
2022-10-31T14:58:04.115Z,37.41
2022-10-31T15:00:34.166Z,38.04
2022-10-31T15:03:26.238Z,38.49
2022-10-31T15:05:57.840Z,39.07
2022-10-31T15:08:44.994Z,39.46
2022-10-31T15:11:20.078Z,39.81
2022-10-31T15:13:58.258Z,40.60
2022-10-31T15:16:36.935Z,41.03
2022-10-31T15:19:11.839Z,41.63
2022-10-31T15:21:48.318Z,41.95
2022-10-31T15:24:19.669Z,42.54
2022-10-31T15:26:52.878Z,42.87
2022-10-31T15:29:23.734Z,43.37
2022-10-31T15:31:55.811Z,43.66
2022-10-31T15:34:43.086Z,43.87
2022-10-31T15:37:20.638Z,44.42
2022-10-31T15:39:49.730Z,44.82
2022-10-31T15:42:31.253Z,44.98
2022-10-31T15:45:24.933Z,45.34
2022-10-31T15:48:05.277Z,45.78
2022-10-31T15:50:38.766Z,46.00
2022-10-31T15:53:12.526Z,46.11
2022-10-31T15:56:06.056Z,46.77
2022-10-31T15:58:42.759Z,47.37
2022-10-31T16:01:25.406Z,48.14
2022-10-31T16:04:04.584Z,48.51
2022-10-31T16:06:34.421Z,48.65
2022-10-31T16:09:01.714Z,48.90
2022-10-31T16:11:40.304Z,49.13
2022-10-31T16:14:11.655Z,49.02
2022-10-31T16:16:47.416Z,49.29
2022-10-31T16:19:25.061Z,49.58
2022-10-31T16:21:57.360Z,49.84
2022-10-31T16:24:30.254Z,50.30
2022-10-31T16:27:24.435Z,50.68
2022-10-31T16:29:51.638Z,50.77
2022-10-31T16:32:38.562Z,50.99
2022-10-31T16:35:26.921Z,51.27
2022-10-31T16:37:54.752Z,51.35
2022-10-31T16:40:21.820Z,51.18
2022-10-31T16:42:50.500Z,51.21
2022-10-31T16:45:27.213Z,51.73
2022-10-31T16:47:54.652Z,51.89
2022-10-31T16:50:24.147Z,52.27
2022-10-31T16:53:12.928Z,52.38
2022-10-31T16:55:58.214Z,52.60
2022-10-31T16:58:36.770Z,52.67
2022-10-31T17:01:07.065Z,53.13
2022-10-31T17:03:34.514Z,53.26
2022-10-31T17:06:03.044Z,53.27
2022-10-31T17:08:31.017Z,53.39
2022-10-31T17:10:59.517Z,53.66
2022-10-31T17:13:31.321Z,53.45
2022-10-31T17:16:01.841Z,53.43
2022-10-31T17:18:30.943Z,53.56
2022-10-31T17:21:00.785Z,53.97
2022-10-31T17:23:28.857Z,54.23
2022-10-31T17:25:58.647Z,54.44
2022-10-31T17:28:31.802Z,54.51
2022-10-31T17:30:59.493Z,54.61
2022-10-31T17:33:27.147Z,54.74
2022-10-31T17:35:54.543Z,55.11
2022-10-31T17:38:21.885Z,55.19
2022-10-31T17:43:21.030Z,55.39
2022-10-31T17:45:48.035Z,55.38
2022-10-31T17:48:15.065Z,55.51
2022-10-31T17:50:44.989Z,55.37
2022-10-31T17:53:12.009Z,55.62
2022-10-31T17:55:39.047Z,55.79
2022-10-31T17:58:06.145Z,55.45
2022-10-31T18:00:34.188Z,55.58
2022-10-31T18:03:04.884Z,55.58
2022-10-31T18:05:32.396Z,55.55
2022-10-31T18:08:03.732Z,55.44
2022-10-31T18:10:34.528Z,55.48
2022-10-31T18:13:01.822Z,55.63
2022-10-31T18:15:33.804Z,55.96
2022-10-31T18:18:01.064Z,56.07
2022-10-31T18:20:30.889Z,56.12
2022-10-31T18:22:57.931Z,56.00
2022-10-31T18:25:25.041Z,56.50
2022-10-31T18:27:52.046Z,56.41
2022-10-31T18:30:19.053Z,56.47
2022-10-31T18:32:49.568Z,56.38
2022-10-31T18:35:16.648Z,56.69
2022-10-31T18:37:43.979Z,56.74
2022-10-31T18:40:13.520Z,57.14
2022-10-31T18:42:40.626Z,57.49
2022-10-31T18:45:11.993Z,57.61
2022-10-31T18:47:55.302Z,57.96
2022-10-31T18:50:22.369Z,58.08
2022-10-31T18:52:49.390Z,58.37
2022-10-31T18:55:16.677Z,58.53
2022-10-31T18:57:43.734Z,58.92
2022-10-31T19:00:11.419Z,58.91
2022-10-31T19:02:39.468Z,58.95
2022-10-31T19:05:06.895Z,59.29
2022-10-31T19:07:33.978Z,59.37
2022-10-31T19:10:01.067Z,59.38
2022-10-31T19:12:28.045Z,59.65
2022-10-31T19:14:55.367Z,59.73
2022-10-31T19:17:25.494Z,59.69
2022-10-31T19:19:52.599Z,59.76
2022-10-31T19:22:19.725Z,59.96
2022-10-31T19:24:46.881Z,60.13
2022-10-31T19:27:13.905Z,60.33
2022-10-31T19:29:42.301Z,60.43
2022-10-31T19:32:09.709Z,59.92
2022-10-31T19:34:36.863Z,60.25
2022-10-31T19:37:03.984Z,60.43
2022-10-31T19:39:31.078Z,60.22
2022-10-31T19:41:58.175Z,60.43
2022-10-31T19:44:25.466Z,60.12
2022-10-31T19:46:53.789Z,59.78
2022-10-31T19:49:21.600Z,59.95
2022-10-31T19:51:48.676Z,60.15
2022-10-31T19:54:15.830Z,60.23
2022-10-31T19:56:43.023Z,60.11
2022-10-31T19:59:10.206Z,60.23
2022-10-31T20:01:37.500Z,60.33
2022-10-31T20:04:04.802Z,60.23
2022-10-31T20:06:37.293Z,60.37
2022-10-31T20:09:08.596Z,60.34
2022-10-31T20:11:38.174Z,60.46
2022-10-31T20:14:06.585Z,60.23
2022-10-31T20:16:33.759Z,60.02
2022-10-31T20:19:01.120Z,59.60
2022-10-31T20:21:31.943Z,59.26
2022-10-31T20:24:02.596Z,59.28
2022-10-31T20:26:31.933Z,59.27
2022-10-31T20:29:00.698Z,59.34
2022-10-31T20:31:33.944Z,59.42
2022-10-31T20:34:01.305Z,59.54
2022-10-31T20:36:31.597Z,59.35
2022-10-31T20:39:00.264Z,59.24
2022-10-31T20:41:29.840Z,58.93
2022-10-31T20:43:58.310Z,59.04
2022-10-31T20:46:27.361Z,59.04
2022-10-31T20:48:57.299Z,59.09
2022-10-31T20:51:28.324Z,59.00
2022-10-31T20:53:57.737Z,58.96
2022-10-31T20:56:27.449Z,58.97
2022-10-31T20:58:56.254Z,59.13
2022-10-31T21:01:30.067Z,59.18
2022-10-31T21:03:58.965Z,58.84
2022-10-31T21:06:26.848Z,58.65
2022-10-31T21:08:54.150Z,58.61
2022-10-31T21:11:24.274Z,58.80
2022-10-31T21:13:52.122Z,58.82
2022-10-31T21:16:23.602Z,58.93
2022-10-31T21:18:51.968Z,58.93
2022-10-31T21:21:28.895Z,59.04
2022-10-31T21:24:13.447Z,58.88
2022-10-31T21:26:45.147Z,58.68
2022-10-31T21:29:13.823Z,58.70
2022-10-31T21:31:42.089Z,58.93
2022-10-31T21:34:10.014Z,59.02
2022-10-31T21:36:37.969Z,59.09
2022-10-31T21:39:07.825Z,59.11
2022-10-31T21:41:35.221Z,59.08
2022-10-31T21:44:02.331Z,59.35
2022-10-31T21:46:32.323Z,59.58
2022-10-31T21:49:02.159Z,59.69
2022-10-31T21:51:32.645Z,60.15
2022-10-31T21:54:18.991Z,60.18
2022-10-31T21:56:46.341Z,60.21
2022-10-31T21:59:13.794Z,60.50
2022-10-31T22:01:41.302Z,60.74
2022-10-31T22:04:08.661Z,60.75
2022-10-31T22:06:36.562Z,61.08
2022-10-31T22:09:07.369Z,61.18
2022-10-31T22:11:35.061Z,61.43
2022-10-31T22:14:02.876Z,61.36
2022-10-31T22:16:33.660Z,61.60
2022-10-31T22:19:05.453Z,61.94
2022-10-31T22:21:46.536Z,62.02
2022-10-31T22:24:15.237Z,61.93
2022-10-31T22:26:42.582Z,62.26
2022-10-31T22:29:17.428Z,62.12
2022-10-31T22:31:50.599Z,62.29
2022-10-31T22:34:20.581Z,62.40
2022-10-31T22:36:47.844Z,62.35
2022-10-31T22:39:15.300Z,62.49
2022-10-31T22:41:42.543Z,62.55
2022-10-31T22:44:10.031Z,62.75
2022-10-31T22:46:40.022Z,63.02
2022-10-31T22:49:14.717Z,63.07
2022-10-31T22:51:43.286Z,62.89
2022-10-31T22:54:18.710Z,63.02
2022-10-31T22:56:46.452Z,62.75
2022-10-31T22:59:15.702Z,62.98
2022-10-31T23:01:46.634Z,63.25
2022-10-31T23:04:16.383Z,63.14
2022-10-31T23:06:44.434Z,63.16
2022-10-31T23:09:15.264Z,63.04
2022-10-31T23:11:43.128Z,63.04
2022-10-31T23:14:18.595Z,63.13
2022-10-31T23:16:55.478Z,63.27
2022-10-31T23:19:40.676Z,63.48
2022-10-31T23:22:07.822Z,63.36
2022-10-31T23:24:42.853Z,63.39
2022-10-31T23:27:17.220Z,63.50
2022-10-31T23:29:48.541Z,63.66
2022-10-31T23:32:31.840Z,63.71
2022-10-31T23:35:06.284Z,63.92
2022-10-31T23:37:36.516Z,63.99
2022-10-31T23:40:05.389Z,63.77
2022-10-31T23:42:32.445Z,63.77
2022-10-31T23:44:59.495Z,63.78
2022-10-31T23:47:26.644Z,63.70
2022-10-31T23:49:53.759Z,63.63
2022-10-31T23:52:20.961Z,63.18
2022-10-31T23:54:48.151Z,63.22
2022-10-31T23:57:16.826Z,63.62
2022-10-31T23:59:44.230Z,63.65
